Quick Links (Output Below):   Max & Min Temps   /   Climate Reports   /   Zone Forecasts
River Forecasts   /   Forestry Forecasts   /   Aviation Forecasts   /   Radars   /   Features

Terminal Aerodrome Forecast (Little Rock)

Pick a Site:
Arkadelphia | El Dorado | Fayetteville | Fort Smith | Harrison | Highfill | Hot Springs | Jonesboro
Little Rock | Monticello | Mountain Home | Pine Bluff | Texarkana
 Forecast 

KLIT 270537Z 2706/2806 17005KT P6SM SCT100 BKN250
      TEMPO 2710/2714 5SM BR FEW010
     FM271400 22006KT P6SM VCSH SCT035 SCT100 BKN250
     FM271800 22007KT P6SM VCTS SCT035CB BKN100 OVC250=


 Latest METARs (Observations) 
How to Decode METARs
10Z KLIT 270953Z 19004KT 10SM SCT100 OVC200 20/17 A3006 RMK AO2 SLP180
         T02000167
         
09Z KLIT 270853Z 21004KT 10SM BKN100 OVC200 21/17 A3003 RMK AO2 SLP170
         T02060167 58003
         
08Z KLIT 270753Z 22004KT 10SM BKN100 OVC200 22/17 A3004 RMK AO2 SLP174
         T02170172
         
07Z KLIT 270653Z 20009KT 10SM FEW040 OVC200 22/18 A3005 RMK AO2 SLP175
         T02170183
         
06Z KLIT 270553Z 17007KT 10SM OVC200 21/19 A3004 RMK AO2 SLP173
         T02110189 10261 20206 402720172 55007
         
05Z KLIT 270453Z 17004KT 10SM BKN250 21/18 A3004 RMK AO2 SLP173 OCNL
         LTGIC DSNT SE T02110183
         
04Z KLIT 270353Z 17004KT 10SM BKN250 22/18 A3005 RMK AO2 SLP175
         T02170183
         
03Z KLIT 270253Z 00000KT 10SM FEW100 BKN250 22/18 A3006 RMK AO2 SLP181
         T02220183 51022
         
02Z KLIT 270153Z 19005KT 10SM FEW100 SCT250 22/18 A3006 RMK AO2 SLP178
         T02220183
         
01Z KLIT 270053Z 18008KT 10SM FEW250 24/18 A3002 RMK AO2 SLP165
         T02390183
         
***** Today's Observations (Above) *****


Back to Main Page
http://www.srh.noaa.gov/lzk/qfcst.php

USA.gov is the U.S. government's official web portal to all federal, state and local government web resources and services.